Blue Hill Falls, Maine
Current Conditions -  °F | °C
As of 5:35 AM on Thursday 18 Dec 2014 (Local Time) from KBHB Reporting Station
Overcast Overcast  
Wind Chill: 27°   Ceiling: 1000
Heat Index: 34°   Visibility: 4mi
Dew Point: 34°   Wind: 8mph
Humidity: 100%   Direction: 320°NW
Pressure: 29.56"   Gusts: NA
Location:  44.38°N, 68.57°W
Report Text: KBHB 181035Z AUTO 32007KT 4SM BKN010 OVC038 01/01 A2956 RMK AO1
Loading
Personal Weather Stations






























Interactive Weather Map New forecast layout! Learn more

10-Day Weather Forecast

Advertisements
Track Severe Weather on mobile